sensor_id;sensor_type;location;lat;lon;timestamp;P1;durP1;ratioP1;P2;durP2;ratioP2
22525;SDS011;11429;50.842;4.386;2022-07-29T00:01:41;7.10;;;2.15;;
22525;SDS011;11429;50.842;4.386;2022-07-29T00:04:08;4.88;;;1.70;;
22525;SDS011;11429;50.842;4.386;2022-07-29T00:06:33;9.77;;;1.90;;
22525;SDS011;11429;50.842;4.386;2022-07-29T00:08:59;7.43;;;2.00;;
22525;SDS011;11429;50.842;4.386;2022-07-29T00:11:25;4.85;;;1.65;;
22525;SDS011;11429;50.842;4.386;2022-07-29T00:13:50;8.70;;;2.13;;
22525;SDS011;11429;50.842;4.386;2022-07-29T00:16:16;6.68;;;1.77;;
22525;SDS011;11429;50.842;4.386;2022-07-29T00:18:42;7.82;;;1.98;;
22525;SDS011;11429;50.842;4.386;2022-07-29T00:21:08;7.47;;;1.83;;
22525;SDS011;11429;50.842;4.386;2022-07-29T00:23:33;5.88;;;1.42;;
22525;SDS011;11429;50.842;4.386;2022-07-29T00:25:59;4.28;;;1.55;;
22525;SDS011;11429;50.842;4.386;2022-07-29T00:28:25;4.55;;;1.50;;
22525;SDS011;11429;50.842;4.386;2022-07-29T00:30:50;3.75;;;1.70;;
22525;SDS011;11429;50.842;4.386;2022-07-29T00:33:16;6.55;;;2.30;;
22525;SDS011;11429;50.842;4.386;2022-07-29T00:35:42;3.53;;;1.60;;
22525;SDS011;11429;50.842;4.386;2022-07-29T00:38:14;5.85;;;1.73;;
22525;SDS011;11429;50.842;4.386;2022-07-29T00:40:41;5.00;;;1.73;;
22525;SDS011;11429;50.842;4.386;2022-07-29T00:43:08;5.97;;;1.77;;
22525;SDS011;11429;50.842;4.386;2022-07-29T00:45:34;6.55;;;1.52;;
22525;SDS011;11429;50.842;4.386;2022-07-29T00:48:00;5.88;;;2.08;;
22525;SDS011;11429;50.842;4.386;2022-07-29T00:50:27;3.92;;;1.63;;
22525;SDS011;11429;50.842;4.386;2022-07-29T00:52:53;5.85;;;1.85;;
22525;SDS011;11429;50.842;4.386;2022-07-29T00:55:19;6.57;;;1.88;;
22525;SDS011;11429;50.842;4.386;2022-07-29T00:57:46;5.70;;;1.65;;
22525;SDS011;11429;50.842;4.386;2022-07-29T01:00:13;5.18;;;1.90;;
22525;SDS011;11429;50.842;4.386;2022-07-29T01:02:42;9.10;;;2.45;;
22525;SDS011;11429;50.842;4.386;2022-07-29T01:05:08;6.93;;;2.20;;
22525;SDS011;11429;50.842;4.386;2022-07-29T01:07:36;6.75;;;2.03;;
22525;SDS011;11429;50.842;4.386;2022-07-29T01:10:06;3.72;;;1.90;;
22525;SDS011;11429;50.842;4.386;2022-07-29T01:12:34;8.43;;;2.15;;
22525;SDS011;11429;50.842;4.386;2022-07-29T01:15:02;4.88;;;1.77;;
22525;SDS011;11429;50.842;4.386;2022-07-29T01:17:35;4.95;;;1.67;;
22525;SDS011;11429;50.842;4.386;2022-07-29T01:23:11;8.07;;;1.85;;
22525;SDS011;11429;50.842;4.386;2022-07-29T01:31:19;5.78;;;1.92;;
22525;SDS011;11429;50.842;4.386;2022-07-29T01:33:58;4.18;;;1.65;;
22525;SDS011;11429;50.842;4.386;2022-07-29T01:36:28;4.80;;;1.80;;
22525;SDS011;11429;50.842;4.386;2022-07-29T01:41:55;4.68;;;1.95;;
22525;SDS011;11429;50.842;4.386;2022-07-29T01:44:37;6.80;;;1.73;;
22525;SDS011;11429;50.842;4.386;2022-07-29T01:47:14;7.93;;;2.22;;
22525;SDS011;11429;50.842;4.386;2022-07-29T01:49:46;3.45;;;1.73;;
22525;SDS011;11429;50.842;4.386;2022-07-29T01:52:21;5.38;;;1.65;;
22525;SDS011;11429;50.842;4.386;2022-07-29T01:54:53;4.28;;;1.90;;
22525;SDS011;11429;50.842;4.386;2022-07-29T01:57:25;4.35;;;1.83;;
22525;SDS011;11429;50.842;4.386;2022-07-29T01:59:52;6.28;;;2.05;;
22525;SDS011;11429;50.842;4.386;2022-07-29T02:02:20;5.70;;;1.90;;
22525;SDS011;11429;50.842;4.386;2022-07-29T02:04:47;5.75;;;1.67;;
22525;SDS011;11429;50.842;4.386;2022-07-29T02:07:17;6.25;;;2.08;;
22525;SDS011;11429;50.842;4.386;2022-07-29T02:09:46;4.70;;;1.90;;
22525;SDS011;11429;50.842;4.386;2022-07-29T02:12:14;6.43;;;2.00;;
22525;SDS011;11429;50.842;4.386;2022-07-29T02:14:44;4.35;;;1.50;;
22525;SDS011;11429;50.842;4.386;2022-07-29T02:17:13;5.82;;;1.83;;
22525;SDS011;11429;50.842;4.386;2022-07-29T02:19:45;6.13;;;1.77;;
22525;SDS011;11429;50.842;4.386;2022-07-29T02:22:13;3.65;;;1.65;;
22525;SDS011;11429;50.842;4.386;2022-07-29T02:24:41;2.80;;;1.60;;
22525;SDS011;11429;50.842;4.386;2022-07-29T02:27:07;6.45;;;1.95;;
22525;SDS011;11429;50.842;4.386;2022-07-29T02:29:34;5.35;;;1.75;;
22525;SDS011;11429;50.842;4.386;2022-07-29T02:32:02;4.05;;;1.88;;
22525;SDS011;11429;50.842;4.386;2022-07-29T02:34:28;4.70;;;1.60;;
22525;SDS011;11429;50.842;4.386;2022-07-29T02:36:55;4.38;;;1.70;;
22525;SDS011;11429;50.842;4.386;2022-07-29T02:39:21;3.80;;;1.63;;
22525;SDS011;11429;50.842;4.386;2022-07-29T02:41:48;7.95;;;1.88;;
22525;SDS011;11429;50.842;4.386;2022-07-29T02:44:18;6.55;;;1.73;;
22525;SDS011;11429;50.842;4.386;2022-07-29T02:49:52;3.75;;;1.58;;
22525;SDS011;11429;50.842;4.386;2022-07-29T02:52:26;3.42;;;1.83;;
22525;SDS011;11429;50.842;4.386;2022-07-29T02:55:43;7.15;;;2.20;;
22525;SDS011;11429;50.842;4.386;2022-07-29T02:58:00;3.83;;;1.73;;
22525;SDS011;11429;50.842;4.386;2022-07-29T03:00:28;8.90;;;1.90;;
22525;SDS011;11429;50.842;4.386;2022-07-29T03:02:58;3.42;;;1.73;;
22525;SDS011;11429;50.842;4.386;2022-07-29T03:05:26;4.78;;;1.70;;
22525;SDS011;11429;50.842;4.386;2022-07-29T03:07:55;11.38;;;2.30;;
22525;SDS011;11429;50.842;4.386;2022-07-29T03:10:25;5.38;;;1.75;;
22525;SDS011;11429;50.842;4.386;2022-07-29T03:12:51;6.35;;;1.92;;
22525;SDS011;11429;50.842;4.386;2022-07-29T03:15:18;4.60;;;1.75;;
22525;SDS011;11429;50.842;4.386;2022-07-29T03:17:44;4.25;;;1.90;;
22525;SDS011;11429;50.842;4.386;2022-07-29T03:20:11;5.13;;;2.13;;
22525;SDS011;11429;50.842;4.386;2022-07-29T03:22:41;5.93;;;1.95;;
22525;SDS011;11429;50.842;4.386;2022-07-29T03:27:38;6.18;;;2.03;;
22525;SDS011;11429;50.842;4.386;2022-07-29T03:30:05;5.85;;;2.20;;
22525;SDS011;11429;50.842;4.386;2022-07-29T03:32:31;5.38;;;1.90;;
22525;SDS011;11429;50.842;4.386;2022-07-29T03:34:57;3.85;;;1.52;;
22525;SDS011;11429;50.842;4.386;2022-07-29T03:37:23;4.10;;;1.80;;
22525;SDS011;11429;50.842;4.386;2022-07-29T03:39:49;4.68;;;1.85;;
22525;SDS011;11429;50.842;4.386;2022-07-29T03:42:16;5.68;;;2.05;;
22525;SDS011;11429;50.842;4.386;2022-07-29T03:44:47;7.53;;;2.20;;
22525;SDS011;11429;50.842;4.386;2022-07-29T03:47:14;8.07;;;2.10;;
22525;SDS011;11429;50.842;4.386;2022-07-29T03:49:42;3.88;;;1.92;;
22525;SDS011;11429;50.842;4.386;2022-07-29T03:52:11;4.68;;;2.22;;
22525;SDS011;11429;50.842;4.386;2022-07-29T03:54:37;7.13;;;2.17;;
22525;SDS011;11429;50.842;4.386;2022-07-29T03:57:04;4.63;;;2.10;;
22525;SDS011;11429;50.842;4.386;2022-07-29T03:59:32;7.10;;;2.40;;
22525;SDS011;11429;50.842;4.386;2022-07-29T04:02:02;5.68;;;1.95;;
22525;SDS011;11429;50.842;4.386;2022-07-29T04:04:31;7.75;;;2.20;;
22525;SDS011;11429;50.842;4.386;2022-07-29T04:06:59;5.82;;;2.20;;
22525;SDS011;11429;50.842;4.386;2022-07-29T04:09:24;8.40;;;2.47;;
22525;SDS011;11429;50.842;4.386;2022-07-29T04:11:50;7.85;;;2.42;;
22525;SDS011;11429;50.842;4.386;2022-07-29T04:14:16;8.60;;;2.22;;
22525;SDS011;11429;50.842;4.386;2022-07-29T04:16:41;6.22;;;1.83;;
22525;SDS011;11429;50.842;4.386;2022-07-29T04:19:07;4.93;;;2.40;;
22525;SDS011;11429;50.842;4.386;2022-07-29T04:21:36;7.18;;;2.50;;
22525;SDS011;11429;50.842;4.386;2022-07-29T04:24:03;7.57;;;2.72;;
22525;SDS011;11429;50.842;4.386;2022-07-29T04:26:29;14.05;;;2.63;;
22525;SDS011;11429;50.842;4.386;2022-07-29T04:28:54;10.32;;;2.58;;
22525;SDS011;11429;50.842;4.386;2022-07-29T04:31:20;8.35;;;2.42;;
22525;SDS011;11429;50.842;4.386;2022-07-29T04:33:46;5.65;;;2.38;;
22525;SDS011;11429;50.842;4.386;2022-07-29T04:36:12;8.10;;;2.70;;
22525;SDS011;11429;50.842;4.386;2022-07-29T04:38:37;9.68;;;2.72;;
22525;SDS011;11429;50.842;4.386;2022-07-29T04:41:03;6.78;;;2.70;;
22525;SDS011;11429;50.842;4.386;2022-07-29T04:43:31;6.28;;;2.70;;
22525;SDS011;11429;50.842;4.386;2022-07-29T04:45:58;12.98;;;2.80;;
22525;SDS011;11429;50.842;4.386;2022-07-29T04:48:23;5.72;;;2.88;;
22525;SDS011;11429;50.842;4.386;2022-07-29T04:50:49;14.00;;;3.53;;
22525;SDS011;11429;50.842;4.386;2022-07-29T04:53:15;8.88;;;3.20;;
22525;SDS011;11429;50.842;4.386;2022-07-29T04:55:40;7.57;;;3.05;;
22525;SDS011;11429;50.842;4.386;2022-07-29T04:58:06;7.60;;;3.17;;
22525;SDS011;11429;50.842;4.386;2022-07-29T05:00:32;10.82;;;3.65;;
22525;SDS011;11429;50.842;4.386;2022-07-29T05:02:58;6.47;;;2.97;;
22525;SDS011;11429;50.842;4.386;2022-07-29T05:05:24;13.05;;;4.05;;
22525;SDS011;11429;50.842;4.386;2022-07-29T05:07:49;9.25;;;3.58;;
22525;SDS011;11429;50.842;4.386;2022-07-29T05:10:15;10.82;;;3.78;;
22525;SDS011;11429;50.842;4.386;2022-07-29T05:12:41;9.55;;;3.30;;
22525;SDS011;11429;50.842;4.386;2022-07-29T05:15:07;7.72;;;3.40;;
22525;SDS011;11429;50.842;4.386;2022-07-29T05:17:33;8.43;;;3.65;;
22525;SDS011;11429;50.842;4.386;2022-07-29T05:19:58;7.38;;;3.22;;
22525;SDS011;11429;50.842;4.386;2022-07-29T05:22:24;8.93;;;3.60;;
22525;SDS011;11429;50.842;4.386;2022-07-29T05:24:50;10.13;;;3.78;;
22525;SDS011;11429;50.842;4.386;2022-07-29T05:27:15;9.25;;;3.72;;
22525;SDS011;11429;50.842;4.386;2022-07-29T05:29:41;8.73;;;3.90;;
22525;SDS011;11429;50.842;4.386;2022-07-29T05:32:07;7.55;;;3.40;;
22525;SDS011;11429;50.842;4.386;2022-07-29T05:34:33;6.20;;;3.13;;
22525;SDS011;11429;50.842;4.386;2022-07-29T05:36:58;6.05;;;3.25;;
22525;SDS011;11429;50.842;4.386;2022-07-29T05:39:24;7.43;;;3.00;;
22525;SDS011;11429;50.842;4.386;2022-07-29T05:41:50;7.15;;;3.13;;
22525;SDS011;11429;50.842;4.386;2022-07-29T05:44:16;9.05;;;3.40;;
22525;SDS011;11429;50.842;4.386;2022-07-29T05:46:42;7.95;;;3.35;;
22525;SDS011;11429;50.842;4.386;2022-07-29T05:49:08;5.95;;;3.00;;
22525;SDS011;11429;50.842;4.386;2022-07-29T05:51:33;4.88;;;2.90;;
22525;SDS011;11429;50.842;4.386;2022-07-29T05:53:59;7.55;;;3.30;;
22525;SDS011;11429;50.842;4.386;2022-07-29T05:56:25;9.05;;;3.28;;
22525;SDS011;11429;50.842;4.386;2022-07-29T05:58:51;7.63;;;3.38;;
22525;SDS011;11429;50.842;4.386;2022-07-29T06:01:17;8.75;;;3.17;;
22525;SDS011;11429;50.842;4.386;2022-07-29T06:03:42;7.88;;;3.28;;
22525;SDS011;11429;50.842;4.386;2022-07-29T06:06:08;8.82;;;3.65;;
22525;SDS011;11429;50.842;4.386;2022-07-29T06:08:34;5.50;;;3.08;;
22525;SDS011;11429;50.842;4.386;2022-07-29T06:11:01;6.55;;;3.13;;
22525;SDS011;11429;50.842;4.386;2022-07-29T06:13:28;5.05;;;3.00;;
22525;SDS011;11429;50.842;4.386;2022-07-29T06:15:54;5.60;;;2.80;;
22525;SDS011;11429;50.842;4.386;2022-07-29T06:18:20;8.32;;;3.40;;
22525;SDS011;11429;50.842;4.386;2022-07-29T06:20:49;6.43;;;3.15;;
22525;SDS011;11429;50.842;4.386;2022-07-29T06:23:15;10.20;;;3.38;;
22525;SDS011;11429;50.842;4.386;2022-07-29T06:25:42;5.80;;;3.28;;
22525;SDS011;11429;50.842;4.386;2022-07-29T06:28:07;8.30;;;3.40;;
22525;SDS011;11429;50.842;4.386;2022-07-29T06:30:33;8.15;;;3.45;;
22525;SDS011;11429;50.842;4.386;2022-07-29T06:32:59;5.05;;;2.88;;
22525;SDS011;11429;50.842;4.386;2022-07-29T06:35:26;8.57;;;3.13;;
22525;SDS011;11429;50.842;4.386;2022-07-29T06:37:51;5.72;;;3.03;;
22525;SDS011;11429;50.842;4.386;2022-07-29T06:40:17;6.38;;;2.80;;
22525;SDS011;11429;50.842;4.386;2022-07-29T06:43:01;7.22;;;3.10;;
22525;SDS011;11429;50.842;4.386;2022-07-29T06:45:27;4.22;;;3.42;;
22525;SDS011;11429;50.842;4.386;2022-07-29T06:47:53;5.80;;;2.90;;
22525;SDS011;11429;50.842;4.386;2022-07-29T06:50:19;6.30;;;3.10;;
22525;SDS011;11429;50.842;4.386;2022-07-29T06:52:46;9.68;;;3.10;;
22525;SDS011;11429;50.842;4.386;2022-07-29T06:55:12;13.85;;;4.15;;
22525;SDS011;11429;50.842;4.386;2022-07-29T06:57:39;8.13;;;2.90;;
22525;SDS011;11429;50.842;4.386;2022-07-29T07:00:05;6.60;;;3.30;;
22525;SDS011;11429;50.842;4.386;2022-07-29T07:02:31;7.30;;;3.20;;
22525;SDS011;11429;50.842;4.386;2022-07-29T07:04:57;4.78;;;3.03;;
22525;SDS011;11429;50.842;4.386;2022-07-29T07:07:23;6.35;;;3.22;;
22525;SDS011;11429;50.842;4.386;2022-07-29T07:09:49;6.55;;;2.95;;
22525;SDS011;11429;50.842;4.386;2022-07-29T07:12:15;8.90;;;3.13;;
22525;SDS011;11429;50.842;4.386;2022-07-29T07:14:41;8.70;;;3.75;;
22525;SDS011;11429;50.842;4.386;2022-07-29T07:17:06;5.70;;;3.85;;
22525;SDS011;11429;50.842;4.386;2022-07-29T07:19:32;8.45;;;3.72;;
22525;SDS011;11429;50.842;4.386;2022-07-29T07:21:58;6.47;;;4.43;;
22525;SDS011;11429;50.842;4.386;2022-07-29T07:24:24;6.00;;;3.70;;
22525;SDS011;11429;50.842;4.386;2022-07-29T07:26:50;9.13;;;3.58;;
22525;SDS011;11429;50.842;4.386;2022-07-29T07:29:16;8.02;;;3.83;;
22525;SDS011;11429;50.842;4.386;2022-07-29T07:31:42;8.73;;;3.70;;
22525;SDS011;11429;50.842;4.386;2022-07-29T07:34:07;8.55;;;3.30;;
22525;SDS011;11429;50.842;4.386;2022-07-29T07:36:33;7.22;;;3.90;;
22525;SDS011;11429;50.842;4.386;2022-07-29T07:38:59;13.40;;;4.07;;
22525;SDS011;11429;50.842;4.386;2022-07-29T07:41:24;13.98;;;3.97;;
22525;SDS011;11429;50.842;4.386;2022-07-29T07:43:50;14.48;;;4.20;;
22525;SDS011;11429;50.842;4.386;2022-07-29T07:46:16;6.93;;;3.75;;
22525;SDS011;11429;50.842;4.386;2022-07-29T07:48:42;8.85;;;3.90;;
22525;SDS011;11429;50.842;4.386;2022-07-29T07:51:07;9.88;;;4.35;;
22525;SDS011;11429;50.842;4.386;2022-07-29T07:53:33;7.07;;;3.35;;
22525;SDS011;11429;50.842;4.386;2022-07-29T07:55:59;14.52;;;4.38;;
22525;SDS011;11429;50.842;4.386;2022-07-29T07:58:25;10.15;;;4.65;;
22525;SDS011;11429;50.842;4.386;2022-07-29T08:00:51;7.78;;;3.90;;
22525;SDS011;11429;50.842;4.386;2022-07-29T08:03:16;6.00;;;3.88;;
22525;SDS011;11429;50.842;4.386;2022-07-29T08:05:42;7.95;;;4.25;;
22525;SDS011;11429;50.842;4.386;2022-07-29T08:08:08;9.00;;;4.55;;
22525;SDS011;11429;50.842;4.386;2022-07-29T08:10:34;9.90;;;4.80;;
22525;SDS011;11429;50.842;4.386;2022-07-29T08:13:18;11.90;;;3.92;;
22525;SDS011;11429;50.842;4.386;2022-07-29T08:15:45;13.18;;;3.60;;
22525;SDS011;11429;50.842;4.386;2022-07-29T08:18:12;6.40;;;3.45;;
22525;SDS011;11429;50.842;4.386;2022-07-29T08:20:38;6.85;;;3.38;;
22525;SDS011;11429;50.842;4.386;2022-07-29T08:23:05;6.72;;;3.35;;
22525;SDS011;11429;50.842;4.386;2022-07-29T08:25:33;5.95;;;3.47;;
22525;SDS011;11429;50.842;4.386;2022-07-29T08:28:01;9.18;;;2.95;;
22525;SDS011;11429;50.842;4.386;2022-07-29T08:30:27;9.25;;;3.40;;
22525;SDS011;11429;50.842;4.386;2022-07-29T08:32:53;13.60;;;3.70;;
22525;SDS011;11429;50.842;4.386;2022-07-29T08:35:19;7.50;;;2.67;;
22525;SDS011;11429;50.842;4.386;2022-07-29T08:37:45;4.90;;;2.90;;
22525;SDS011;11429;50.842;4.386;2022-07-29T08:40:11;6.78;;;3.33;;
22525;SDS011;11429;50.842;4.386;2022-07-29T08:42:37;4.35;;;2.60;;
22525;SDS011;11429;50.842;4.386;2022-07-29T08:45:03;7.80;;;2.60;;
22525;SDS011;11429;50.842;4.386;2022-07-29T08:47:30;8.93;;;3.10;;
22525;SDS011;11429;50.842;4.386;2022-07-29T08:49:56;6.68;;;3.33;;
22525;SDS011;11429;50.842;4.386;2022-07-29T08:52:22;10.38;;;3.00;;
22525;SDS011;11429;50.842;4.386;2022-07-29T08:54:50;4.50;;;3.30;;
22525;SDS011;11429;50.842;4.386;2022-07-29T08:57:18;6.60;;;3.17;;
22525;SDS011;11429;50.842;4.386;2022-07-29T08:59:44;5.70;;;2.63;;
22525;SDS011;11429;50.842;4.386;2022-07-29T09:02:17;6.15;;;2.88;;
22525;SDS011;11429;50.842;4.386;2022-07-29T09:04:45;6.78;;;2.65;;
22525;SDS011;11429;50.842;4.386;2022-07-29T09:07:12;7.85;;;2.30;;
22525;SDS011;11429;50.842;4.386;2022-07-29T09:09:40;7.20;;;2.58;;
22525;SDS011;11429;50.842;4.386;2022-07-29T09:12:07;15.38;;;3.15;;
22525;SDS011;11429;50.842;4.386;2022-07-29T09:14:34;7.85;;;2.00;;
22525;SDS011;11429;50.842;4.386;2022-07-29T09:16:59;6.95;;;2.53;;
22525;SDS011;11429;50.842;4.386;2022-07-29T09:19:30;6.95;;;2.00;;
22525;SDS011;11429;50.842;4.386;2022-07-29T09:22:00;7.43;;;2.17;;
22525;SDS011;11429;50.842;4.386;2022-07-29T09:26:59;5.25;;;1.73;;
22525;SDS011;11429;50.842;4.386;2022-07-29T09:29:25;8.10;;;2.20;;
22525;SDS011;11429;50.842;4.386;2022-07-29T09:31:52;4.20;;;2.17;;
22525;SDS011;11429;50.842;4.386;2022-07-29T09:34:23;7.88;;;2.30;;
22525;SDS011;11429;50.842;4.386;2022-07-29T09:36:51;10.30;;;2.42;;
22525;SDS011;11429;50.842;4.386;2022-07-29T09:39:38;9.25;;;2.20;;
22525;SDS011;11429;50.842;4.386;2022-07-29T09:42:10;8.85;;;2.10;;
22525;SDS011;11429;50.842;4.386;2022-07-29T09:47:13;9.07;;;2.30;;
22525;SDS011;11429;50.842;4.386;2022-07-29T09:49:58;6.97;;;2.15;;
22525;SDS011;11429;50.842;4.386;2022-07-29T09:52:25;4.68;;;2.13;;
22525;SDS011;11429;50.842;4.386;2022-07-29T09:54:52;7.65;;;2.55;;
22525;SDS011;11429;50.842;4.386;2022-07-29T09:57:24;7.25;;;2.40;;
22525;SDS011;11429;50.842;4.386;2022-07-29T09:59:55;4.85;;;2.00;;
22525;SDS011;11429;50.842;4.386;2022-07-29T10:02:22;9.52;;;2.15;;
22525;SDS011;11429;50.842;4.386;2022-07-29T10:04:53;8.85;;;2.63;;
22525;SDS011;11429;50.842;4.386;2022-07-29T10:07:19;7.30;;;2.78;;
22525;SDS011;11429;50.842;4.386;2022-07-29T10:09:52;6.35;;;2.35;;
22525;SDS011;11429;50.842;4.386;2022-07-29T10:12:19;15.65;;;2.88;;
22525;SDS011;11429;50.842;4.386;2022-07-29T10:14:45;12.82;;;2.45;;
22525;SDS011;11429;50.842;4.386;2022-07-29T10:17:12;5.45;;;2.47;;
22525;SDS011;11429;50.842;4.386;2022-07-29T10:19:38;5.90;;;2.28;;
22525;SDS011;11429;50.842;4.386;2022-07-29T10:22:06;9.27;;;1.98;;
22525;SDS011;11429;50.842;4.386;2022-07-29T10:24:33;13.85;;;3.17;;
22525;SDS011;11429;50.842;4.386;2022-07-29T10:27:01;8.43;;;2.90;;
22525;SDS011;11429;50.842;4.386;2022-07-29T10:29:28;9.82;;;3.40;;
22525;SDS011;11429;50.842;4.386;2022-07-29T10:43:32;10.88;;;3.05;;
22525;SDS011;11429;50.842;4.386;2022-07-29T10:46:02;7.75;;;2.30;;
22525;SDS011;11429;50.842;4.386;2022-07-29T10:48:29;9.82;;;2.65;;
22525;SDS011;11429;50.842;4.386;2022-07-29T10:51:02;8.48;;;2.53;;
22525;SDS011;11429;50.842;4.386;2022-07-29T10:56:31;5.80;;;1.92;;
22525;SDS011;11429;50.842;4.386;2022-07-29T11:01:45;6.10;;;2.10;;
22525;SDS011;11429;50.842;4.386;2022-07-29T11:04:11;7.93;;;2.08;;
22525;SDS011;11429;50.842;4.386;2022-07-29T11:07:23;7.28;;;2.53;;
22525;SDS011;11429;50.842;4.386;2022-07-29T11:09:23;7.82;;;2.17;;
22525;SDS011;11429;50.842;4.386;2022-07-29T11:11:49;15.63;;;2.30;;
22525;SDS011;11429;50.842;4.386;2022-07-29T11:14:15;6.65;;;2.40;;
22525;SDS011;11429;50.842;4.386;2022-07-29T11:16:58;5.25;;;2.20;;
22525;SDS011;11429;50.842;4.386;2022-07-29T11:19:31;15.10;;;2.55;;
22525;SDS011;11429;50.842;4.386;2022-07-29T11:21:57;6.53;;;1.88;;
22525;SDS011;11429;50.842;4.386;2022-07-29T11:24:24;6.65;;;2.20;;
22525;SDS011;11429;50.842;4.386;2022-07-29T11:27:17;5.35;;;2.30;;
22525;SDS011;11429;50.842;4.386;2022-07-29T11:29:57;7.57;;;2.60;;
22525;SDS011;11429;50.842;4.386;2022-07-29T11:32:33;5.28;;;2.65;;
22525;SDS011;11429;50.842;4.386;2022-07-29T11:43:54;10.15;;;2.78;;
22525;SDS011;11429;50.842;4.386;2022-07-29T11:49:06;11.13;;;3.30;;
22525;SDS011;11429;50.842;4.386;2022-07-29T11:51:33;12.65;;;4.18;;
22525;SDS011;11429;50.842;4.386;2022-07-29T11:54:01;6.50;;;3.17;;
22525;SDS011;11429;50.842;4.386;2022-07-29T11:56:27;15.50;;;3.92;;
22525;SDS011;11429;50.842;4.386;2022-07-29T11:59:06;9.18;;;3.35;;
22525;SDS011;11429;50.842;4.386;2022-07-29T12:01:34;12.98;;;4.30;;
22525;SDS011;11429;50.842;4.386;2022-07-29T12:04:07;8.05;;;4.07;;
22525;SDS011;11429;50.842;4.386;2022-07-29T12:06:35;9.70;;;3.50;;
22525;SDS011;11429;50.842;4.386;2022-07-29T12:09:07;11.50;;;3.80;;
22525;SDS011;11429;50.842;4.386;2022-07-29T12:11:33;6.95;;;2.55;;
22525;SDS011;11429;50.842;4.386;2022-07-29T12:13:59;10.60;;;2.75;;
22525;SDS011;11429;50.842;4.386;2022-07-29T12:16:34;5.35;;;2.60;;
22525;SDS011;11429;50.842;4.386;2022-07-29T12:19:01;11.40;;;3.45;;
22525;SDS011;11429;50.842;4.386;2022-07-29T12:21:29;7.68;;;3.58;;
22525;SDS011;11429;50.842;4.386;2022-07-29T12:24:08;14.25;;;3.47;;
22525;SDS011;11429;50.842;4.386;2022-07-29T12:26:33;9.18;;;3.25;;
22525;SDS011;11429;50.842;4.386;2022-07-29T12:28:59;10.02;;;4.38;;
22525;SDS011;11429;50.842;4.386;2022-07-29T12:31:25;9.00;;;3.20;;
22525;SDS011;11429;50.842;4.386;2022-07-29T12:33:52;9.38;;;3.05;;
22525;SDS011;11429;50.842;4.386;2022-07-29T12:36:18;10.13;;;2.90;;
22525;SDS011;11429;50.842;4.386;2022-07-29T12:38:44;6.15;;;3.00;;
22525;SDS011;11429;50.842;4.386;2022-07-29T12:41:11;5.43;;;2.60;;
22525;SDS011;11429;50.842;4.386;2022-07-29T12:43:37;9.60;;;2.40;;
22525;SDS011;11429;50.842;4.386;2022-07-29T12:46:13;10.73;;;2.75;;
22525;SDS011;11429;50.842;4.386;2022-07-29T12:48:40;15.77;;;3.92;;
22525;SDS011;11429;50.842;4.386;2022-07-29T12:51:07;7.38;;;2.78;;
22525;SDS011;11429;50.842;4.386;2022-07-29T12:53:35;12.25;;;2.72;;
22525;SDS011;11429;50.842;4.386;2022-07-29T12:56:01;12.13;;;2.38;;
22525;SDS011;11429;50.842;4.386;2022-07-29T12:58:28;5.13;;;2.90;;
22525;SDS011;11429;50.842;4.386;2022-07-29T13:01:03;8.68;;;2.50;;
22525;SDS011;11429;50.842;4.386;2022-07-29T13:03:50;6.45;;;2.55;;
22525;SDS011;11429;50.842;4.386;2022-07-29T13:11:51;7.50;;;2.92;;
22525;SDS011;11429;50.842;4.386;2022-07-29T13:17:08;10.30;;;2.50;;
22525;SDS011;11429;50.842;4.386;2022-07-29T13:22:09;7.57;;;1.85;;
22525;SDS011;11429;50.842;4.386;2022-07-29T13:27:13;11.90;;;2.35;;
22525;SDS011;11429;50.842;4.386;2022-07-29T13:29:39;7.65;;;2.20;;
22525;SDS011;11429;50.842;4.386;2022-07-29T13:32:05;6.47;;;2.03;;
22525;SDS011;11429;50.842;4.386;2022-07-29T13:34:31;11.60;;;1.80;;
22525;SDS011;11429;50.842;4.386;2022-07-29T13:36:56;8.52;;;2.30;;
22525;SDS011;11429;50.842;4.386;2022-07-29T13:39:22;17.67;;;2.78;;
22525;SDS011;11429;50.842;4.386;2022-07-29T13:41:48;10.52;;;2.20;;
22525;SDS011;11429;50.842;4.386;2022-07-29T13:44:14;11.68;;;3.03;;
22525;SDS011;11429;50.842;4.386;2022-07-29T13:46:40;7.05;;;2.00;;
22525;SDS011;11429;50.842;4.386;2022-07-29T13:49:05;11.27;;;2.13;;
22525;SDS011;11429;50.842;4.386;2022-07-29T13:51:31;10.23;;;2.33;;
22525;SDS011;11429;50.842;4.386;2022-07-29T13:53:57;32.10;;;3.65;;
22525;SDS011;11429;50.842;4.386;2022-07-29T13:56:23;9.63;;;2.05;;
22525;SDS011;11429;50.842;4.386;2022-07-29T13:58:48;7.38;;;2.05;;
22525;SDS011;11429;50.842;4.386;2022-07-29T14:01:14;7.75;;;1.83;;
22525;SDS011;11429;50.842;4.386;2022-07-29T14:03:40;8.15;;;2.17;;
22525;SDS011;11429;50.842;4.386;2022-07-29T14:06:08;9.98;;;1.80;;
22525;SDS011;11429;50.842;4.386;2022-07-29T14:08:34;5.85;;;1.80;;
22525;SDS011;11429;50.842;4.386;2022-07-29T14:10:59;9.77;;;2.30;;
22525;SDS011;11429;50.842;4.386;2022-07-29T14:13:25;7.97;;;1.70;;
22525;SDS011;11429;50.842;4.386;2022-07-29T14:15:51;7.22;;;1.90;;
22525;SDS011;11429;50.842;4.386;2022-07-29T14:18:17;8.13;;;2.10;;
22525;SDS011;11429;50.842;4.386;2022-07-29T14:20:43;6.57;;;1.60;;
22525;SDS011;11429;50.842;4.386;2022-07-29T14:23:09;15.95;;;2.65;;
22525;SDS011;11429;50.842;4.386;2022-07-29T14:25:34;6.25;;;1.70;;
22525;SDS011;11429;50.842;4.386;2022-07-29T14:28:00;6.18;;;1.50;;
22525;SDS011;11429;50.842;4.386;2022-07-29T14:30:25;11.10;;;1.98;;
22525;SDS011;11429;50.842;4.386;2022-07-29T14:32:51;11.60;;;2.00;;
22525;SDS011;11429;50.842;4.386;2022-07-29T14:35:17;11.20;;;1.92;;
22525;SDS011;11429;50.842;4.386;2022-07-29T14:37:42;15.65;;;2.53;;
22525;SDS011;11429;50.842;4.386;2022-07-29T14:40:09;6.47;;;2.00;;
22525;SDS011;11429;50.842;4.386;2022-07-29T14:42:35;9.30;;;2.00;;
22525;SDS011;11429;50.842;4.386;2022-07-29T14:45:02;6.47;;;2.17;;
22525;SDS011;11429;50.842;4.386;2022-07-29T14:47:31;12.77;;;2.40;;
22525;SDS011;11429;50.842;4.386;2022-07-29T14:49:57;9.27;;;2.17;;
22525;SDS011;11429;50.842;4.386;2022-07-29T14:52:22;7.00;;;1.65;;
22525;SDS011;11429;50.842;4.386;2022-07-29T14:54:48;6.85;;;1.90;;
22525;SDS011;11429;50.842;4.386;2022-07-29T14:57:14;6.07;;;1.70;;
22525;SDS011;11429;50.842;4.386;2022-07-29T14:59:39;9.82;;;2.25;;
22525;SDS011;11429;50.842;4.386;2022-07-29T15:02:05;9.77;;;1.95;;
22525;SDS011;11429;50.842;4.386;2022-07-29T15:04:31;14.02;;;2.30;;
22525;SDS011;11429;50.842;4.386;2022-07-29T15:06:56;14.13;;;2.55;;
22525;SDS011;11429;50.842;4.386;2022-07-29T15:09:22;7.75;;;1.98;;
22525;SDS011;11429;50.842;4.386;2022-07-29T15:11:48;7.55;;;2.38;;
22525;SDS011;11429;50.842;4.386;2022-07-29T15:14:14;10.43;;;2.20;;
22525;SDS011;11429;50.842;4.386;2022-07-29T15:16:40;14.25;;;2.42;;
22525;SDS011;11429;50.842;4.386;2022-07-29T15:19:07;11.23;;;2.22;;
22525;SDS011;11429;50.842;4.386;2022-07-29T15:21:33;14.48;;;1.83;;
22525;SDS011;11429;50.842;4.386;2022-07-29T15:23:59;7.07;;;2.40;;
22525;SDS011;11429;50.842;4.386;2022-07-29T15:26:25;10.45;;;2.20;;
22525;SDS011;11429;50.842;4.386;2022-07-29T15:28:50;7.53;;;2.17;;
22525;SDS011;11429;50.842;4.386;2022-07-29T15:31:16;10.88;;;2.75;;
22525;SDS011;11429;50.842;4.386;2022-07-29T15:33:43;7.72;;;2.30;;
22525;SDS011;11429;50.842;4.386;2022-07-29T15:36:10;15.00;;;2.58;;
22525;SDS011;11429;50.842;4.386;2022-07-29T15:38:37;19.95;;;2.83;;
22525;SDS011;11429;50.842;4.386;2022-07-29T15:41:05;9.48;;;2.10;;
22525;SDS011;11429;50.842;4.386;2022-07-29T15:43:32;8.93;;;2.10;;
22525;SDS011;11429;50.842;4.386;2022-07-29T15:45:59;15.35;;;2.60;;
22525;SDS011;11429;50.842;4.386;2022-07-29T15:48:44;27.45;;;2.85;;
22525;SDS011;11429;50.842;4.386;2022-07-29T15:51:09;21.67;;;3.03;;
22525;SDS011;11429;50.842;4.386;2022-07-29T15:53:35;8.88;;;2.28;;